sensor_id;sensor_type;location;lat;lon;timestamp;pressure;altitude;pressure_sealevel;temperature;humidity
46756;BME280;32506;52.826;-1.192;2024-02-23T00:01:04;97691.47;;;3.25;69.50
46756;BME280;32506;52.826;-1.192;2024-02-23T00:03:29;97680.34;;;3.23;69.15
46756;BME280;32506;52.826;-1.192;2024-02-23T00:05:55;97679.53;;;3.22;68.75
46756;BME280;32506;52.826;-1.192;2024-02-23T00:08:20;97670.03;;;3.21;68.91
46756;BME280;32506;52.826;-1.192;2024-02-23T00:10:45;97669.22;;;3.21;69.09
46756;BME280;32506;52.826;-1.192;2024-02-23T00:13:11;97676.34;;;3.20;69.24
46756;BME280;32506;52.826;-1.192;2024-02-23T00:15:37;97673.94;;;3.18;69.07
46756;BME280;32506;52.826;-1.192;2024-02-23T00:18:02;97671.53;;;3.17;68.90
46756;BME280;32506;52.826;-1.192;2024-02-23T00:20:29;97669.94;;;3.16;69.12
46756;BME280;32506;52.826;-1.192;2024-02-23T00:22:55;97664.91;;;3.14;69.01
46756;BME280;32506;52.826;-1.192;2024-02-23T00:25:20;97664.06;;;3.14;69.13
46756;BME280;32506;52.826;-1.192;2024-02-23T00:27:45;97665.09;;;3.13;69.00
46756;BME280;32506;52.826;-1.192;2024-02-23T00:30:13;97663.53;;;3.12;69.29
46756;BME280;32506;52.826;-1.192;2024-02-23T00:32:38;97656.63;;;3.11;69.03
46756;BME280;32506;52.826;-1.192;2024-02-23T00:35:04;97666.41;;;3.10;69.24
46756;BME280;32506;52.826;-1.192;2024-02-23T00:37:29;97666.63;;;3.09;68.70
46756;BME280;32506;52.826;-1.192;2024-02-23T00:40:03;97665.81;;;3.08;69.04
46756;BME280;32506;52.826;-1.192;2024-02-23T00:42:31;97671.09;;;3.08;69.24
46756;BME280;32506;52.826;-1.192;2024-02-23T00:44:57;97661.03;;;3.05;68.97
46756;BME280;32506;52.826;-1.192;2024-02-23T00:47:22;97660.22;;;3.05;69.10
46756;BME280;32506;52.826;-1.192;2024-02-23T00:49:48;97662.06;;;3.04;68.72
46756;BME280;32506;52.826;-1.192;2024-02-23T00:52:14;97672.84;;;3.02;69.03
46756;BME280;32506;52.826;-1.192;2024-02-23T00:54:40;97664.34;;;3.00;69.25
46756;BME280;32506;52.826;-1.192;2024-02-23T00:57:05;97674.13;;;3.00;69.14
46756;BME280;32506;52.826;-1.192;2024-02-23T00:59:31;97668.84;;;3.00;69.02
46756;BME280;32506;52.826;-1.192;2024-02-23T01:01:57;97674.91;;;3.00;68.84
46756;BME280;32506;52.826;-1.192;2024-02-23T01:04:22;97670.66;;;2.99;69.04
46756;BME280;32506;52.826;-1.192;2024-02-23T01:06:48;97667.22;;;2.99;69.19
46756;BME280;32506;52.826;-1.192;2024-02-23T01:09:13;97662.19;;;2.97;69.03
46756;BME280;32506;52.826;-1.192;2024-02-23T01:11:41;97664.03;;;2.97;69.48
46756;BME280;32506;52.826;-1.192;2024-02-23T01:14:06;97651.63;;;2.97;69.41
46756;BME280;32506;52.826;-1.192;2024-02-23T01:16:32;97654.50;;;2.96;69.39
46756;BME280;32506;52.826;-1.192;2024-02-23T01:18:58;97652.66;;;2.96;69.48
46756;BME280;32506;52.826;-1.192;2024-02-23T01:21:23;97654.50;;;2.96;69.46
46756;BME280;32506;52.826;-1.192;2024-02-23T01:23:49;97648.41;;;2.95;69.25
46756;BME280;32506;52.826;-1.192;2024-02-23T01:26:14;97656.34;;;2.95;69.83
46756;BME280;32506;52.826;-1.192;2024-02-23T01:28:40;97640.75;;;2.94;69.96
46756;BME280;32506;52.826;-1.192;2024-02-23T01:31:08;97646.03;;;2.94;69.63
46756;BME280;32506;52.826;-1.192;2024-02-23T01:33:36;97645.00;;;2.95;69.70
46756;BME280;32506;52.826;-1.192;2024-02-23T01:36:06;97640.75;;;2.94;69.93
46756;BME280;32506;52.826;-1.192;2024-02-23T01:38:32;97643.38;;;2.94;69.66
46756;BME280;32506;52.826;-1.192;2024-02-23T01:40:58;97634.69;;;2.93;69.68
46756;BME280;32506;52.826;-1.192;2024-02-23T01:43:24;97639.13;;;2.93;69.66
46756;BME280;32506;52.826;-1.192;2024-02-23T01:45:49;97633.31;;;2.91;69.60
46756;BME280;32506;52.826;-1.192;2024-02-23T01:48:15;97639.38;;;2.91;69.29
46756;BME280;32506;52.826;-1.192;2024-02-23T01:50:42;97638.81;;;2.89;69.79
46756;BME280;32506;52.826;-1.192;2024-02-23T01:53:08;97627.69;;;2.87;69.65
46756;BME280;32506;52.826;-1.192;2024-02-23T01:55:36;97632.19;;;2.87;69.50
46756;BME280;32506;52.826;-1.192;2024-02-23T01:58:03;97631.38;;;2.86;69.74
46756;BME280;32506;52.826;-1.192;2024-02-23T02:00:29;97627.94;;;2.85;69.35
46756;BME280;32506;52.826;-1.192;2024-02-23T02:02:55;97620.25;;;2.84;69.36
46756;BME280;32506;52.826;-1.192;2024-02-23T02:05:21;97624.75;;;2.83;69.32
46756;BME280;32506;52.826;-1.192;2024-02-23T02:07:47;97630.81;;;2.84;69.41
46756;BME280;32506;52.826;-1.192;2024-02-23T02:10:16;97627.38;;;2.83;69.87
46756;BME280;32506;52.826;-1.192;2024-02-23T02:12:42;97630.22;;;2.82;69.92
46756;BME280;32506;52.826;-1.192;2024-02-23T02:15:08;97626.81;;;2.81;70.03
46756;BME280;32506;52.826;-1.192;2024-02-23T02:17:34;97624.16;;;2.81;70.75
46756;BME280;32506;52.826;-1.192;2024-02-23T02:20:02;97617.28;;;2.80;70.65
46756;BME280;32506;52.826;-1.192;2024-02-23T02:22:31;97618.34;;;2.79;70.82
46756;BME280;32506;52.826;-1.192;2024-02-23T02:24:57;97620.97;;;2.79;70.64
46756;BME280;32506;52.826;-1.192;2024-02-23T02:27:23;97625.19;;;2.80;71.12
46756;BME280;32506;52.826;-1.192;2024-02-23T02:29:50;97618.34;;;2.79;71.11
46756;BME280;32506;52.826;-1.192;2024-02-23T02:32:16;97615.69;;;2.79;71.09
46756;BME280;32506;52.826;-1.192;2024-02-23T02:34:42;97612.25;;;2.79;70.87
46756;BME280;32506;52.826;-1.192;2024-02-23T02:37:07;97617.28;;;2.80;71.11
46756;BME280;32506;52.826;-1.192;2024-02-23T02:39:33;97613.84;;;2.80;70.61
46756;BME280;32506;52.826;-1.192;2024-02-23T02:41:59;97617.28;;;2.80;71.31
46756;BME280;32506;52.826;-1.192;2024-02-23T02:44:24;97621.53;;;2.81;71.50
46756;BME280;32506;52.826;-1.192;2024-02-23T02:46:50;97618.88;;;2.81;71.56
46756;BME280;32506;52.826;-1.192;2024-02-23T02:49:15;97614.41;;;2.82;71.65
46756;BME280;32506;52.826;-1.192;2024-02-23T02:51:41;97609.13;;;2.82;71.50
46756;BME280;32506;52.826;-1.192;2024-02-23T02:54:06;97604.44;;;2.84;72.35
46756;BME280;32506;52.826;-1.192;2024-02-23T02:56:31;97607.84;;;2.84;71.93
46756;BME280;32506;52.826;-1.192;2024-02-23T02:58:57;97610.28;;;2.86;71.79
46756;BME280;32506;52.826;-1.192;2024-02-23T03:01:22;97597.88;;;2.87;71.91
46756;BME280;32506;52.826;-1.192;2024-02-23T03:03:48;97602.13;;;2.88;72.09
46756;BME280;32506;52.826;-1.192;2024-02-23T03:06:13;97600.03;;;2.90;72.07
46756;BME280;32506;52.826;-1.192;2024-02-23T03:08:41;97592.94;;;2.90;72.52
46756;BME280;32506;52.826;-1.192;2024-02-23T03:11:07;97590.84;;;2.92;72.64
46756;BME280;32506;52.826;-1.192;2024-02-23T03:13:32;97586.16;;;2.94;72.23
46756;BME280;32506;52.826;-1.192;2024-02-23T03:15:58;97589.34;;;2.96;72.33
46756;BME280;32506;52.826;-1.192;2024-02-23T03:18:23;97582.78;;;2.99;72.84
46756;BME280;32506;52.826;-1.192;2024-02-23T03:20:49;97578.09;;;3.01;72.72
46756;BME280;32506;52.826;-1.192;2024-02-23T03:23:14;97576.81;;;3.04;72.80
46756;BME280;32506;52.826;-1.192;2024-02-23T03:25:39;97575.31;;;3.08;72.72
46756;BME280;32506;52.826;-1.192;2024-02-23T03:28:05;97570.81;;;3.08;73.15
46756;BME280;32506;52.826;-1.192;2024-02-23T03:30:30;97564.28;;;3.11;72.87
46756;BME280;32506;52.826;-1.192;2024-02-23T03:32:56;97568.28;;;3.13;73.41
46756;BME280;32506;52.826;-1.192;2024-02-23T03:35:21;97569.06;;;3.14;73.02
46756;BME280;32506;52.826;-1.192;2024-02-23T03:37:47;97563.34;;;3.17;73.05
46756;BME280;32506;52.826;-1.192;2024-02-23T03:40:12;97573.66;;;3.18;73.14
46756;BME280;32506;52.826;-1.192;2024-02-23T03:42:38;97562.84;;;3.20;73.02
46756;BME280;32506;52.826;-1.192;2024-02-23T03:45:04;97551.00;;;3.23;72.98
46756;BME280;32506;52.826;-1.192;2024-02-23T03:47:30;97565.00;;;3.23;72.83
46756;BME280;32506;52.826;-1.192;2024-02-23T03:49:55;97564.50;;;3.26;72.73
46756;BME280;32506;52.826;-1.192;2024-02-23T03:52:20;97565.34;;;3.27;72.88
46756;BME280;32506;52.826;-1.192;2024-02-23T03:54:46;97559.81;;;3.28;72.65
46756;BME280;32506;52.826;-1.192;2024-02-23T03:57:11;97558.78;;;3.29;73.00
46756;BME280;32506;52.826;-1.192;2024-02-23T03:59:37;97564.59;;;3.31;73.30
46756;BME280;32506;52.826;-1.192;2024-02-23T04:02:03;97570.69;;;3.32;72.97
46756;BME280;32506;52.826;-1.192;2024-02-23T04:04:29;97567.00;;;3.33;73.40
46756;BME280;32506;52.826;-1.192;2024-02-23T04:06:54;97572.84;;;3.35;73.25
46756;BME280;32506;52.826;-1.192;2024-02-23T04:09:19;97574.47;;;3.36;73.12
46756;BME280;32506;52.826;-1.192;2024-02-23T04:11:47;97567.31;;;3.36;73.07
46756;BME280;32506;52.826;-1.192;2024-02-23T04:14:13;97554.91;;;3.37;72.71
46756;BME280;32506;52.826;-1.192;2024-02-23T04:16:38;97551.81;;;3.40;73.25
46756;BME280;32506;52.826;-1.192;2024-02-23T04:19:03;97558.72;;;3.41;73.29
46756;BME280;32506;52.826;-1.192;2024-02-23T04:21:29;97564.78;;;3.42;73.15
46756;BME280;32506;52.826;-1.192;2024-02-23T04:23:54;97566.13;;;3.44;73.39
46756;BME280;32506;52.826;-1.192;2024-02-23T04:26:20;97565.31;;;3.44;73.22
46756;BME280;32506;52.826;-1.192;2024-02-23T04:28:45;97571.41;;;3.44;73.18
46756;BME280;32506;52.826;-1.192;2024-02-23T04:31:11;97583.34;;;3.47;73.10
46756;BME280;32506;52.826;-1.192;2024-02-23T04:33:37;97578.06;;;3.47;72.69
46756;BME280;32506;52.826;-1.192;2024-02-23T04:36:04;97589.41;;;3.47;72.79
46756;BME280;32506;52.826;-1.192;2024-02-23T04:38:30;97590.22;;;3.48;72.64
46756;BME280;32506;52.826;-1.192;2024-02-23T04:40:56;97586.53;;;3.49;72.46
46756;BME280;32506;52.826;-1.192;2024-02-23T04:43:22;97579.66;;;3.48;72.64
46756;BME280;32506;52.826;-1.192;2024-02-23T04:45:48;97583.66;;;3.50;72.44
46756;BME280;32506;52.826;-1.192;2024-02-23T04:48:13;97588.94;;;3.50;72.90
46756;BME280;32506;52.826;-1.192;2024-02-23T04:50:39;97577.31;;;3.51;72.85
46756;BME280;32506;52.826;-1.192;2024-02-23T04:53:04;97581.56;;;3.52;72.53
46756;BME280;32506;52.826;-1.192;2024-02-23T04:55:30;97588.47;;;3.53;72.83
46756;BME280;32506;52.826;-1.192;2024-02-23T04:57:55;97594.28;;;3.56;72.73
46756;BME280;32506;52.826;-1.192;2024-02-23T05:00:21;97602.22;;;3.56;72.72
46756;BME280;32506;52.826;-1.192;2024-02-23T05:02:46;97597.75;;;3.56;72.33
46756;BME280;32506;52.826;-1.192;2024-02-23T05:05:12;97597.75;;;3.56;72.42
46756;BME280;32506;52.826;-1.192;2024-02-23T05:07:37;97597.50;;;3.58;72.17
46756;BME280;32506;52.826;-1.192;2024-02-23T05:10:03;97597.75;;;3.56;72.22
46756;BME280;32506;52.826;-1.192;2024-02-23T05:12:29;97587.19;;;3.56;71.94
46756;BME280;32506;52.826;-1.192;2024-02-23T05:14:54;97587.97;;;3.57;72.04
46756;BME280;32506;52.826;-1.192;2024-02-23T05:17:20;97584.53;;;3.56;71.96
46756;BME280;32506;52.826;-1.192;2024-02-23T05:19:45;97583.19;;;3.53;71.80
46756;BME280;32506;52.826;-1.192;2024-02-23T05:22:12;97577.91;;;3.53;71.59
46756;BME280;32506;52.826;-1.192;2024-02-23T05:24:37;97582.38;;;3.53;71.99
46756;BME280;32506;52.826;-1.192;2024-02-23T05:27:03;97575.50;;;3.52;71.87
46756;BME280;32506;52.826;-1.192;2024-02-23T05:29:28;97591.34;;;3.52;71.46
46756;BME280;32506;52.826;-1.192;2024-02-23T05:31:54;97587.09;;;3.51;71.58
46756;BME280;32506;52.826;-1.192;2024-02-23T05:34:19;97584.72;;;3.49;71.14
46756;BME280;32506;52.826;-1.192;2024-02-23T05:36:45;97590.78;;;3.50;71.20
46756;BME280;32506;52.826;-1.192;2024-02-23T05:39:12;97593.66;;;3.48;71.10
46756;BME280;32506;52.826;-1.192;2024-02-23T05:41:38;97598.38;;;3.46;71.13
46756;BME280;32506;52.826;-1.192;2024-02-23T05:44:04;97593.31;;;3.45;71.31
46756;BME280;32506;52.826;-1.192;2024-02-23T05:46:32;97594.38;;;3.44;70.99
46756;BME280;32506;52.826;-1.192;2024-02-23T05:48:58;97599.88;;;3.42;71.39
46756;BME280;32506;52.826;-1.192;2024-02-23T05:51:23;97600.94;;;3.41;70.90
46756;BME280;32506;52.826;-1.192;2024-02-23T05:53:49;97615.19;;;3.40;71.19
46756;BME280;32506;52.826;-1.192;2024-02-23T05:56:15;97613.81;;;3.38;71.26
46756;BME280;32506;52.826;-1.192;2024-02-23T05:58:40;97616.47;;;3.38;71.00
46756;BME280;32506;52.826;-1.192;2024-02-23T06:01:06;97614.84;;;3.36;71.08
46756;BME280;32506;52.826;-1.192;2024-02-23T06:03:32;97612.44;;;3.35;71.10
46756;BME280;32506;52.826;-1.192;2024-02-23T06:05:58;97623.25;;;3.33;70.65
46756;BME280;32506;52.826;-1.192;2024-02-23T06:08:23;97620.84;;;3.32;71.04
46756;BME280;32506;52.826;-1.192;2024-02-23T06:10:49;97621.88;;;3.31;70.93
46756;BME280;32506;52.826;-1.192;2024-02-23T06:13:14;97621.31;;;3.29;70.88
46756;BME280;32506;52.826;-1.192;2024-02-23T06:15:40;97615.50;;;3.27;71.19
46756;BME280;32506;52.826;-1.192;2024-02-23T06:18:06;97626.84;;;3.27;70.97
46756;BME280;32506;52.826;-1.192;2024-02-23T06:20:31;97620.19;;;3.25;71.07
46756;BME280;32506;52.826;-1.192;2024-02-23T06:22:57;97618.81;;;3.22;71.03
46756;BME280;32506;52.826;-1.192;2024-02-23T06:25:22;97622.53;;;3.21;70.67
46756;BME280;32506;52.826;-1.192;2024-02-23T06:27:48;97631.47;;;3.20;70.83
46756;BME280;32506;52.826;-1.192;2024-02-23T06:30:13;97631.72;;;3.18;70.93
46756;BME280;32506;52.826;-1.192;2024-02-23T06:32:39;97632.97;;;3.16;70.56
46756;BME280;32506;52.826;-1.192;2024-02-23T06:35:05;97640.31;;;3.14;70.79
46756;BME280;32506;52.826;-1.192;2024-02-23T06:37:32;97647.44;;;3.13;70.57
46756;BME280;32506;52.826;-1.192;2024-02-23T06:39:58;97654.00;;;3.11;70.90
46756;BME280;32506;52.826;-1.192;2024-02-23T06:42:24;97667.19;;;3.11;70.33
46756;BME280;32506;52.826;-1.192;2024-02-23T06:44:50;97662.94;;;3.10;70.63
46756;BME280;32506;52.826;-1.192;2024-02-23T06:47:16;97659.75;;;3.08;70.61
46756;BME280;32506;52.826;-1.192;2024-02-23T06:49:42;97664.22;;;3.07;70.90
46756;BME280;32506;52.826;-1.192;2024-02-23T06:52:09;97659.19;;;3.06;70.59
46756;BME280;32506;52.826;-1.192;2024-02-23T06:54:34;97668.13;;;3.05;70.63
46756;BME280;32506;52.826;-1.192;2024-02-23T06:57:00;97673.63;;;3.03;70.66
46756;BME280;32506;52.826;-1.192;2024-02-23T06:59:25;97670.22;;;3.02;70.63
46756;BME280;32506;52.826;-1.192;2024-02-23T07:01:51;97664.34;;;3.00;70.85
46756;BME280;32506;52.826;-1.192;2024-02-23T07:04:17;97665.38;;;2.99;70.49
46756;BME280;32506;52.826;-1.192;2024-02-23T07:06:43;97662.97;;;2.98;70.78
46756;BME280;32506;52.826;-1.192;2024-02-23T07:09:08;97661.41;;;2.97;70.62
46756;BME280;32506;52.826;-1.192;2024-02-23T07:11:34;97666.88;;;2.95;70.71
46756;BME280;32506;52.826;-1.192;2024-02-23T07:13:59;97665.06;;;2.96;70.48
46756;BME280;32506;52.826;-1.192;2024-02-23T07:16:25;97670.59;;;2.94;70.87
46756;BME280;32506;52.826;-1.192;2024-02-23T07:18:50;97669.78;;;2.94;70.58
46756;BME280;32506;52.826;-1.192;2024-02-23T07:21:19;97683.78;;;2.94;70.99
46756;BME280;32506;52.826;-1.192;2024-02-23T07:23:44;97672.41;;;2.94;71.24
46756;BME280;32506;52.826;-1.192;2024-02-23T07:26:10;97680.09;;;2.95;71.40
46756;BME280;32506;52.826;-1.192;2024-02-23T07:28:36;97678.25;;;2.96;71.40
46756;BME280;32506;52.826;-1.192;2024-02-23T07:31:01;97687.78;;;2.97;71.80
46756;BME280;32506;52.826;-1.192;2024-02-23T07:33:26;97682.50;;;2.97;71.75
46756;BME280;32506;52.826;-1.192;2024-02-23T07:35:52;97696.25;;;2.99;71.55
46756;BME280;32506;52.826;-1.192;2024-02-23T07:38:17;97693.38;;;3.00;72.14
46756;BME280;32506;52.826;-1.192;2024-02-23T07:40:44;97691.31;;;3.02;72.02
46756;BME280;32506;52.826;-1.192;2024-02-23T07:43:09;97699.00;;;3.04;72.68
46756;BME280;32506;52.826;-1.192;2024-02-23T07:45:36;97704.03;;;3.06;72.20
46756;BME280;32506;52.826;-1.192;2024-02-23T07:48:02;97706.44;;;3.07;72.44
46756;BME280;32506;52.826;-1.192;2024-02-23T07:50:28;97711.47;;;3.09;72.15
46756;BME280;32506;52.826;-1.192;2024-02-23T07:52:53;97712.06;;;3.11;72.51
46756;BME280;32506;52.826;-1.192;2024-02-23T07:55:19;97713.66;;;3.12;72.56
46756;BME280;32506;52.826;-1.192;2024-02-23T07:57:44;97723.16;;;3.13;72.98
46756;BME280;32506;52.826;-1.192;2024-02-23T08:00:10;97724.53;;;3.15;72.67
46756;BME280;32506;52.826;-1.192;2024-02-23T08:02:36;97725.91;;;3.18;72.99
46756;BME280;32506;52.826;-1.192;2024-02-23T08:05:01;97718.56;;;3.20;72.70
46756;BME280;32506;52.826;-1.192;2024-02-23T08:07:27;97720.72;;;3.23;72.72
46756;BME280;32506;52.826;-1.192;2024-02-23T08:09:54;97717.84;;;3.25;73.08
46756;BME280;32506;52.826;-1.192;2024-02-23T08:12:19;97718.19;;;3.28;73.00
46756;BME280;32506;52.826;-1.192;2024-02-23T08:14:45;97724.84;;;3.31;72.79
46756;BME280;32506;52.826;-1.192;2024-02-23T08:17:11;97715.41;;;3.35;73.15
46756;BME280;32506;52.826;-1.192;2024-02-23T08:19:37;97715.75;;;3.39;73.12
46756;BME280;32506;52.826;-1.192;2024-02-23T08:22:03;97715.28;;;3.42;73.26
46756;BME280;32506;52.826;-1.192;2024-02-23T08:24:28;97730.63;;;3.45;73.12
46756;BME280;32506;52.826;-1.192;2024-02-23T08:26:54;97723.84;;;3.49;73.24
46756;BME280;32506;52.826;-1.192;2024-02-23T08:29:19;97732.09;;;3.52;73.14
46756;BME280;32506;52.826;-1.192;2024-02-23T08:31:45;97733.81;;;3.59;73.50
46756;BME280;32506;52.826;-1.192;2024-02-23T08:34:10;97737.56;;;3.63;72.96
46756;BME280;32506;52.826;-1.192;2024-02-23T08:36:35;97734.78;;;3.69;73.02
46756;BME280;32506;52.826;-1.192;2024-02-23T08:39:01;97734.06;;;3.74;73.22
46756;BME280;32506;52.826;-1.192;2024-02-23T08:41:33;97743.44;;;3.82;73.10
46756;BME280;32506;52.826;-1.192;2024-02-23T08:43:58;97745.94;;;3.89;72.83
46756;BME280;32506;52.826;-1.192;2024-02-23T08:46:24;97756.13;;;3.97;73.21
46756;BME280;32506;52.826;-1.192;2024-02-23T08:48:49;97758.34;;;4.05;73.00
46756;BME280;32506;52.826;-1.192;2024-02-23T08:51:15;97765.88;;;4.13;73.08
46756;BME280;32506;52.826;-1.192;2024-02-23T08:53:40;97775.84;;;4.23;73.25
46756;BME280;32506;52.826;-1.192;2024-02-23T08:56:07;97777.84;;;4.33;73.40
46756;BME280;32506;52.826;-1.192;2024-02-23T08:58:33;97775.38;;;4.43;73.30
46756;BME280;32506;52.826;-1.192;2024-02-23T09:00:58;97785.03;;;4.54;73.12
46756;BME280;32506;52.826;-1.192;2024-02-23T09:03:24;97784.13;;;4.66;73.40
46756;BME280;32506;52.826;-1.192;2024-02-23T09:05:49;97774.19;;;4.73;72.92
46756;BME280;32506;52.826;-1.192;2024-02-23T09:08:15;97780.69;;;4.82;72.74
46756;BME280;32506;52.826;-1.192;2024-02-23T09:10:41;97782.91;;;4.91;72.63
46756;BME280;32506;52.826;-1.192;2024-02-23T09:13:06;97787.53;;;5.00;73.43
46756;BME280;32506;52.826;-1.192;2024-02-23T09:15:32;97785.56;;;5.13;73.71
46756;BME280;32506;52.826;-1.192;2024-02-23T09:18:03;97785.44;;;5.25;73.62
46756;BME280;32506;52.826;-1.192;2024-02-23T09:23:56;97784.81;;;5.62;74.17
46756;BME280;32506;52.826;-1.192;2024-02-23T09:26:22;97781.28;;;5.78;74.35
46756;BME280;32506;52.826;-1.192;2024-02-23T09:28:47;97785.22;;;5.98;74.30
46756;BME280;32506;52.826;-1.192;2024-02-23T09:31:16;97793.84;;;6.15;74.43
46756;BME280;32506;52.826;-1.192;2024-02-23T09:33:42;97794.53;;;6.33;74.26
46756;BME280;32506;52.826;-1.192;2024-02-23T09:36:09;97801.00;;;6.47;73.71
46756;BME280;32506;52.826;-1.192;2024-02-23T09:38:35;97802.69;;;6.59;73.08
46756;BME280;32506;52.826;-1.192;2024-02-23T09:41:01;97809.91;;;6.68;72.56
46756;BME280;32506;52.826;-1.192;2024-02-23T09:43:29;97815.81;;;6.76;71.68
46756;BME280;32506;52.826;-1.192;2024-02-23T09:45:59;97821.97;;;6.86;71.79
46756;BME280;32506;52.826;-1.192;2024-02-23T09:48:25;97825.47;;;6.92;71.58
46756;BME280;32506;52.826;-1.192;2024-02-23T09:50:52;97818.34;;;7.03;72.07
46756;BME280;32506;52.826;-1.192;2024-02-23T09:53:19;97813.91;;;7.14;72.09
46756;BME280;32506;52.826;-1.192;2024-02-23T09:55:47;97814.75;;;7.25;71.67
46756;BME280;32506;52.826;-1.192;2024-02-23T09:58:13;97829.69;;;7.36;71.93
46756;BME280;32506;52.826;-1.192;2024-02-23T10:00:42;97822.03;;;7.50;71.14
46756;BME280;32506;52.826;-1.192;2024-02-23T10:03:08;97825.28;;;7.67;70.35
46756;BME280;32506;52.826;-1.192;2024-02-23T10:05:34;97825.09;;;8.00;69.98
46756;BME280;32506;52.826;-1.192;2024-02-23T10:08:00;97822.25;;;8.53;69.98
46756;BME280;32506;52.826;-1.192;2024-02-23T10:10:35;97829.59;;;9.23;68.31
46756;BME280;32506;52.826;-1.192;2024-02-23T10:13:01;97831.44;;;9.93;66.62
46756;BME280;32506;52.826;-1.192;2024-02-23T10:15:29;97827.72;;;10.68;64.53
46756;BME280;32506;52.826;-1.192;2024-02-23T10:17:55;97836.84;;;11.45;62.56
46756;BME280;32506;52.826;-1.192;2024-02-23T10:20:21;97836.00;;;12.12;61.29
46756;BME280;32506;52.826;-1.192;2024-02-23T10:22:47;97832.56;;;12.64;60.47
46756;BME280;32506;52.826;-1.192;2024-02-23T10:25:12;97829.34;;;12.95;59.56
46756;BME280;32506;52.826;-1.192;2024-02-23T10:27:38;97835.22;;;13.10;59.11
46756;BME280;32506;52.826;-1.192;2024-02-23T10:30:05;97834.34;;;13.15;59.33
46756;BME280;32506;52.826;-1.192;2024-02-23T10:32:32;97832.25;;;13.12;59.08
46756;BME280;32506;52.826;-1.192;2024-02-23T10:35:00;97830.44;;;13.07;59.52
46756;BME280;32506;52.826;-1.192;2024-02-23T10:37:29;97837.00;;;13.01;59.91
46756;BME280;32506;52.826;-1.192;2024-02-23T10:39:57;97838.47;;;12.93;60.53
46756;BME280;32506;52.826;-1.192;2024-02-23T10:42:30;97840.47;;;12.88;61.13
46756;BME280;32506;52.826;-1.192;2024-02-23T10:44:58;97843.41;;;12.86;61.66
46756;BME280;32506;52.826;-1.192;2024-02-23T10:47:28;97843.41;;;12.86;62.24
46756;BME280;32506;52.826;-1.192;2024-02-23T10:49:56;97848.50;;;12.88;62.38
46756;BME280;32506;52.826;-1.192;2024-02-23T10:52:25;97848.38;;;12.93;62.54
46756;BME280;32506;52.826;-1.192;2024-02-23T10:54:52;97849.91;;;12.99;62.77
46756;BME280;32506;52.826;-1.192;2024-02-23T10:57:18;97844.16;;;13.06;62.07
46756;BME280;32506;52.826;-1.192;2024-02-23T10:59:46;97851.22;;;13.16;62.50
46756;BME280;32506;52.826;-1.192;2024-02-23T11:02:12;97857.47;;;13.25;62.61
46756;BME280;32506;52.826;-1.192;2024-02-23T11:04:42;97858.38;;;13.34;62.60
46756;BME280;32506;52.826;-1.192;2024-02-23T11:07:13;97858.53;;;13.43;62.60
46756;BME280;32506;52.826;-1.192;2024-02-23T11:09:40;97861.09;;;13.48;62.84
46756;BME280;32506;52.826;-1.192;2024-02-23T11:12:05;97868.75;;;13.55;62.70
46756;BME280;32506;52.826;-1.192;2024-02-23T11:14:35;97867.25;;;13.63;62.80
46756;BME280;32506;52.826;-1.192;2024-02-23T11:17:01;97868.16;;;13.72;62.52
46756;BME280;32506;52.826;-1.192;2024-02-23T11:19:34;97864.75;;;13.80;61.81
46756;BME280;32506;52.826;-1.192;2024-02-23T11:22:02;97868.63;;;13.88;61.71
46756;BME280;32506;52.826;-1.192;2024-02-23T11:24:29;97862.06;;;13.94;61.54
46756;BME280;32506;52.826;-1.192;2024-02-23T11:26:57;97856.28;;;14.01;60.81
46756;BME280;32506;52.826;-1.192;2024-02-23T11:29:26;97855.25;;;14.10;61.20
46756;BME280;32506;52.826;-1.192;2024-02-23T11:31:52;97866.88;;;14.20;60.62
46756;BME280;32506;52.826;-1.192;2024-02-23T11:34:22;97860.47;;;14.30;60.66
46756;BME280;32506;52.826;-1.192;2024-02-23T11:36:53;97866.91;;;14.42;59.85
46756;BME280;32506;52.826;-1.192;2024-02-23T11:39:19;97873.81;;;14.57;59.22
46756;BME280;32506;52.826;-1.192;2024-02-23T11:41:48;97864.63;;;14.72;58.99
46756;BME280;32506;52.826;-1.192;2024-02-23T11:44:15;97858.25;;;14.91;59.06
46756;BME280;32506;52.826;-1.192;2024-02-23T11:46:44;97860.53;;;15.06;58.80
46756;BME280;32506;52.826;-1.192;2024-02-23T11:49:16;97864.59;;;15.26;58.82
46756;BME280;32506;52.826;-1.192;2024-02-23T11:51:41;97862.28;;;15.42;58.61
46756;BME280;32506;52.826;-1.192;2024-02-23T11:54:07;97865.34;;;15.58;58.50
46756;BME280;32506;52.826;-1.192;2024-02-23T11:56:32;97869.81;;;15.72;57.84
46756;BME280;32506;52.826;-1.192;2024-02-23T11:58:58;97870.84;;;15.85;57.77
46756;BME280;32506;52.826;-1.192;2024-02-23T12:01:24;97867.50;;;15.97;57.32
46756;BME280;32506;52.826;-1.192;2024-02-23T12:03:49;97866.13;;;16.08;57.53
46756;BME280;32506;52.826;-1.192;2024-02-23T12:06:15;97857.75;;;16.18;57.30
46756;BME280;32506;52.826;-1.192;2024-02-23T12:08:43;97849.97;;;16.25;56.92
46756;BME280;32506;52.826;-1.192;2024-02-23T12:11:11;97857.56;;;16.32;57.24
46756;BME280;32506;52.826;-1.192;2024-02-23T12:13:37;97857.88;;;16.39;56.97
46756;BME280;32506;52.826;-1.192;2024-02-23T12:16:03;97864.69;;;16.54;57.00
46756;BME280;32506;52.826;-1.192;2024-02-23T12:18:33;97865.00;;;16.70;56.63
46756;BME280;32506;52.826;-1.192;2024-02-23T12:21:06;97861.66;;;16.91;56.36
46756;BME280;32506;52.826;-1.192;2024-02-23T12:23:44;97862.38;;;17.18;55.26
46756;BME280;32506;52.826;-1.192;2024-02-23T12:26:12;97862.44;;;17.48;54.41
46756;BME280;32506;52.826;-1.192;2024-02-23T12:28:38;97861.47;;;17.82;53.87
46756;BME280;32506;52.826;-1.192;2024-02-23T12:31:05;97855.53;;;18.19;52.66
46756;BME280;32506;52.826;-1.192;2024-02-23T12:33:32;97849.81;;;18.54;51.05
46756;BME280;32506;52.826;-1.192;2024-02-23T12:35:59;97862.38;;;18.92;51.26
46756;BME280;32506;52.826;-1.192;2024-02-23T12:38:25;97864.03;;;19.18;49.89
46756;BME280;32506;52.826;-1.192;2024-02-23T12:40:51;97857.94;;;19.21;50.20
46756;BME280;32506;52.826;-1.192;2024-02-23T12:43:17;97848.53;;;19.06;49.96
46756;BME280;32506;52.826;-1.192;2024-02-23T12:45:43;97865.28;;;18.87;50.46
46756;BME280;32506;52.826;-1.192;2024-02-23T12:48:10;97855.28;;;18.66;49.21
46756;BME280;32506;52.826;-1.192;2024-02-23T12:50:36;97866.72;;;18.51;46.75
46756;BME280;32506;52.826;-1.192;2024-02-23T12:53:02;97862.84;;;18.73;46.28
46756;BME280;32506;52.826;-1.192;2024-02-23T12:55:28;97859.81;;;19.20;47.71